createdAt,value
2023-04-22T00:04:30.398Z,16.70
2023-04-22T00:09:32.038Z,16.42
2023-04-22T00:14:33.513Z,16.38
2023-04-22T00:19:35.220Z,16.40
2023-04-22T00:24:36.732Z,14.63
2023-04-22T00:29:38.523Z,14.18
2023-04-22T00:34:40.272Z,14.93
2023-04-22T00:39:42.399Z,16.17
2023-04-22T00:44:46.922Z,16.15
2023-04-22T00:49:50.062Z,16.52
2023-04-22T00:54:51.866Z,14.98
2023-04-22T00:59:53.746Z,16.27
2023-04-22T01:04:55.394Z,16.27
2023-04-22T01:09:57.638Z,16.45
2023-04-22T01:14:59.212Z,16.83
2023-04-22T01:20:01.239Z,15.98
2023-04-22T01:25:03.811Z,13.85
2023-04-22T01:30:06.853Z,13.55
2023-04-22T01:35:10.072Z,12.40
2023-04-22T01:40:13.645Z,12.23
2023-04-22T01:45:15.463Z,11.88
2023-04-22T01:50:17.293Z,11.55
2023-04-22T01:55:20.354Z,14.05
2023-04-22T02:00:21.952Z,11.80
2023-04-22T02:05:23.605Z,12.15
2023-04-22T02:10:26.336Z,12.27
2023-04-22T02:15:27.834Z,11.95
2023-04-22T02:20:29.337Z,12.15
2023-04-22T02:25:30.979Z,10.48
2023-04-22T02:30:32.481Z,10.82
2023-04-22T02:35:34.014Z,9.73
2023-04-22T02:40:35.521Z,10.00
2023-04-22T02:45:37.157Z,10.07
2023-04-22T02:50:38.738Z,9.63
2023-04-22T02:55:41.421Z,9.77
2023-04-22T03:00:42.948Z,9.02
2023-04-22T03:05:44.531Z,8.93
2023-04-22T03:10:46.398Z,8.93
2023-04-22T03:15:47.892Z,9.57
2023-04-22T03:20:50.215Z,9.40
2023-04-22T03:25:52.900Z,10.00
2023-04-22T03:30:54.533Z,9.75
2023-04-22T03:35:56.702Z,10.10
2023-04-22T03:40:59.483Z,11.13
2023-04-22T03:46:21.918Z,10.88
2023-04-22T03:51:34.844Z,9.40
2023-04-22T03:56:41.734Z,10.50
2023-04-22T04:01:43.414Z,8.05
2023-04-22T04:06:45.275Z,8.50
2023-04-22T04:11:46.872Z,7.55
2023-04-22T04:16:50.742Z,7.70
2023-04-22T04:22:04.611Z,7.72
2023-04-22T04:27:12.761Z,7.35
2023-04-22T04:32:23.126Z,6.68
2023-04-22T04:37:24.884Z,6.82
2023-04-22T04:42:36.707Z,6.43
2023-04-22T04:47:44.229Z,6.95
2023-04-22T04:52:55.061Z,7.22
2023-04-22T04:58:02.811Z,5.90
2023-04-22T05:03:04.578Z,5.45
2023-04-22T05:08:07.686Z,5.85
2023-04-22T05:13:12.144Z,6.88
2023-04-22T05:18:17.994Z,6.00
2023-04-22T05:23:19.837Z,5.50
2023-04-22T05:28:22.828Z,5.25
2023-04-22T05:33:28.708Z,4.33
2023-04-22T05:38:30.760Z,4.15
2023-04-22T05:43:32.337Z,3.88
2023-04-22T05:48:48.295Z,3.13
2023-04-22T05:54:08.100Z,3.45
2023-04-22T05:59:10.540Z,3.67
2023-04-22T06:04:12.646Z,3.40
2023-04-22T06:09:14.668Z,2.65
2023-04-22T06:14:17.163Z,3.08
2023-04-22T06:19:20.204Z,3.72
2023-04-22T06:24:22.562Z,2.58
2023-04-22T06:29:24.516Z,2.58
2023-04-22T06:34:26.065Z,2.80
2023-04-22T06:39:28.050Z,2.20
2023-04-22T06:44:58.631Z,1.98
2023-04-22T06:50:17.077Z,1.95
2023-04-22T06:55:26.426Z,2.70
2023-04-22T07:00:28.084Z,1.90
2023-04-22T07:05:29.933Z,2.58
2023-04-22T07:10:33.856Z,2.33
2023-04-22T07:15:55.433Z,1.85
2023-04-22T07:20:57.009Z,1.83
2023-04-22T07:25:58.594Z,1.75
2023-04-22T07:31:00.133Z,1.80
2023-04-22T07:36:01.697Z,1.50
2023-04-22T07:41:03.180Z,2.25
2023-04-22T07:46:04.811Z,1.60
2023-04-22T07:51:06.362Z,1.63
2023-04-22T07:56:08.237Z,1.63
2023-04-22T08:01:09.881Z,2.03
2023-04-22T08:06:11.507Z,1.90
2023-04-22T08:11:13.052Z,2.28
2023-04-22T08:16:14.652Z,2.25
2023-04-22T08:21:16.320Z,1.90
2023-04-22T08:26:17.822Z,1.90
2023-04-22T08:31:19.374Z,2.05
2023-04-22T08:36:21.085Z,2.10
2023-04-22T08:41:23.142Z,2.10
2023-04-22T08:46:25.744Z,1.50
2023-04-22T08:51:27.672Z,1.65
2023-04-22T08:56:30.583Z,1.50
2023-04-22T09:01:32.880Z,1.45
2023-04-22T09:06:34.424Z,1.60
2023-04-22T09:11:37.052Z,1.60
2023-04-22T09:16:46.392Z,1.77
2023-04-22T09:21:49.585Z,1.88
2023-04-22T09:26:55.389Z,2.03
2023-04-22T09:31:56.981Z,2.17
2023-04-22T09:36:58.527Z,1.65
2023-04-22T09:42:00.044Z,1.42
2023-04-22T09:47:01.616Z,1.70
2023-04-22T09:52:03.181Z,1.63
2023-04-22T09:57:04.668Z,1.70
2023-04-22T10:02:07.001Z,1.92
2023-04-22T10:07:08.587Z,1.60
2023-04-22T10:12:10.987Z,1.65
2023-04-22T10:17:13.452Z,1.30
2023-04-22T10:22:15.382Z,1.55
2023-04-22T10:27:21.563Z,1.83
2023-04-22T10:32:25.058Z,1.60
2023-04-22T10:37:26.614Z,1.67
2023-04-22T10:42:28.667Z,1.67
2023-04-22T10:47:32.844Z,1.85
2023-04-22T10:52:34.442Z,1.08
2023-04-22T10:57:41.427Z,2.13
2023-04-22T11:02:47.574Z,1.48
2023-04-22T11:07:50.541Z,1.55
2023-04-22T11:12:52.117Z,1.70
2023-04-22T11:17:54.931Z,1.92
2023-04-22T11:22:58.090Z,1.60
2023-04-22T11:27:59.701Z,2.30
2023-04-22T11:33:01.385Z,1.95
2023-04-22T11:38:05.506Z,1.60
2023-04-22T11:43:09.087Z,1.90
2023-04-22T11:48:11.452Z,1.88
2023-04-22T11:53:20.101Z,2.00
2023-04-22T11:58:27.618Z,1.80
2023-04-22T12:03:30.979Z,1.80
2023-04-22T12:08:38.041Z,1.90
2023-04-22T12:13:39.448Z,2.38
2023-04-22T12:18:52.673Z,2.20
2023-04-22T12:24:00.151Z,1.63
2023-04-22T12:29:01.763Z,2.55
2023-04-22T12:34:03.308Z,2.92
2023-04-22T12:39:04.861Z,2.20
2023-04-22T12:44:06.505Z,1.77
2023-04-22T12:49:09.404Z,1.80
2023-04-22T12:54:10.893Z,1.73
2023-04-22T12:59:12.806Z,1.80
2023-04-22T13:04:14.420Z,2.35
2023-04-22T13:09:16.272Z,1.70
2023-04-22T13:14:17.954Z,1.70
2023-04-22T13:19:19.469Z,1.52
2023-04-22T13:24:21.005Z,1.35
2023-04-22T13:29:23.674Z,1.75
2023-04-22T13:34:25.181Z,1.33
2023-04-22T13:39:27.070Z,1.80
2023-04-22T13:44:28.658Z,1.83
2023-04-22T13:49:30.334Z,2.03
2023-04-22T13:54:31.948Z,1.40
2023-04-22T13:59:35.496Z,1.50
2023-04-22T14:04:36.974Z,1.85
2023-04-22T14:09:38.869Z,1.40
2023-04-22T14:14:40.740Z,2.15
2023-04-22T14:19:42.467Z,2.13
2023-04-22T14:24:44.156Z,2.17
2023-04-22T14:29:45.676Z,1.85
2023-04-22T14:34:47.666Z,1.88
2023-04-22T14:39:49.201Z,2.30
2023-04-22T14:44:50.756Z,1.75
2023-04-22T14:49:52.277Z,1.90
2023-04-22T14:54:53.916Z,1.65
2023-04-22T14:59:55.423Z,1.00
2023-04-22T15:04:56.898Z,0.93
2023-04-22T15:09:58.530Z,1.90
2023-04-22T15:15:00.170Z,1.00
2023-04-22T15:20:01.675Z,1.25
2023-04-22T15:25:03.840Z,1.08
2023-04-22T15:30:06.628Z,1.35
2023-04-22T15:35:08.498Z,1.63
2023-04-22T15:40:10.198Z,1.65
2023-04-22T15:45:11.843Z,1.20
2023-04-22T15:50:13.413Z,1.52
2023-04-22T15:55:14.911Z,1.67
2023-04-22T16:00:16.662Z,1.42
2023-04-22T16:05:18.133Z,1.27
2023-04-22T16:10:20.346Z,1.10
2023-04-22T16:15:21.928Z,1.10
2023-04-22T16:20:24.013Z,1.58
2023-04-22T16:25:25.655Z,1.45
2023-04-22T16:30:27.150Z,1.70
2023-04-22T16:35:28.687Z,1.88
2023-04-22T16:40:30.158Z,1.90
2023-04-22T16:45:31.820Z,2.10
2023-04-22T16:50:33.348Z,2.65
2023-04-22T16:55:36.861Z,2.17
2023-04-22T17:00:38.886Z,1.95
2023-04-22T17:05:40.389Z,2.33
2023-04-22T17:10:41.962Z,2.13
2023-04-22T17:15:43.550Z,2.58
2023-04-22T17:20:45.116Z,1.88
2023-04-22T17:25:46.713Z,2.10
2023-04-22T17:30:48.393Z,1.60
2023-04-22T17:35:49.909Z,1.40
2023-04-22T17:40:51.491Z,1.90
2023-04-22T17:45:53.054Z,1.23
2023-04-22T17:50:54.604Z,1.30
2023-04-22T17:55:56.111Z,1.60
2023-04-22T18:00:57.614Z,1.77
2023-04-22T18:05:59.532Z,1.58
2023-04-22T18:11:01.034Z,2.00
2023-04-22T18:16:02.620Z,2.42
2023-04-22T18:21:04.329Z,1.98
2023-04-22T18:26:05.897Z,14.57
2023-04-22T18:31:07.952Z,1.80
2023-04-22T18:36:09.582Z,2.40
2023-04-22T18:41:11.266Z,5.13
2023-04-22T18:46:12.830Z,2.60
2023-04-22T18:51:14.433Z,2.50
2023-04-22T18:56:16.076Z,3.55
2023-04-22T19:01:17.628Z,2.90
2023-04-22T19:06:19.214Z,6.25
2023-04-22T19:11:20.806Z,5.03
2023-04-22T19:16:24.959Z,4.55
2023-04-22T19:21:27.835Z,2.92
2023-04-22T19:26:29.388Z,2.78
2023-04-22T19:31:31.062Z,2.38
2023-04-22T19:36:32.620Z,2.28
2023-04-22T19:41:34.201Z,2.85
2023-04-22T19:46:35.751Z,2.15
2023-04-22T19:51:39.018Z,3.03
2023-04-22T19:56:40.723Z,2.67
2023-04-22T20:01:42.468Z,2.60
2023-04-22T20:06:44.545Z,2.13
2023-04-22T20:11:52.497Z,2.05
2023-04-22T20:16:54.301Z,3.47
2023-04-22T20:21:56.535Z,9.32
2023-04-22T20:26:58.235Z,9.63
2023-04-22T20:31:59.906Z,7.38
2023-04-22T20:37:01.581Z,6.90
2023-04-22T20:42:03.708Z,11.40
2023-04-22T20:47:05.280Z,8.35
2023-04-22T20:52:07.951Z,9.25
2023-04-22T20:57:09.431Z,9.82
2023-04-22T21:02:12.044Z,9.95
2023-04-22T21:07:16.004Z,12.68
2023-04-22T21:12:18.114Z,12.00
2023-04-22T21:17:22.565Z,15.52
2023-04-22T21:22:24.469Z,13.13
2023-04-22T21:27:26.245Z,12.35
2023-04-22T21:32:27.778Z,12.07
2023-04-22T21:37:29.400Z,12.65
2023-04-22T21:42:30.878Z,13.32
2023-04-22T21:47:32.411Z,12.93
2023-04-22T21:52:33.977Z,15.70
2023-04-22T21:57:35.543Z,15.52
2023-04-22T22:02:37.248Z,14.88
2023-04-22T22:07:39.381Z,14.63
2023-04-22T22:12:41.349Z,15.10
2023-04-22T22:17:43.528Z,15.05
2023-04-22T22:22:45.179Z,14.57
2023-04-22T22:27:47.008Z,15.18
2023-04-22T22:32:49.505Z,15.23
2023-04-22T22:37:51.124Z,14.77
2023-04-22T22:42:52.627Z,15.68
2023-04-22T22:47:54.384Z,18.05
2023-04-22T22:52:56.021Z,13.95
2023-04-22T22:57:57.612Z,18.65
2023-04-22T23:02:59.405Z,16.67
2023-04-22T23:08:01.169Z,16.35
2023-04-22T23:13:02.828Z,16.13
2023-04-22T23:18:04.473Z,18.17
2023-04-22T23:23:06.616Z,15.70
2023-04-22T23:28:08.559Z,13.90
2023-04-22T23:33:12.794Z,15.80
2023-04-22T23:38:14.328Z,14.75
2023-04-22T23:43:15.897Z,14.80
2023-04-22T23:48:17.591Z,15.13
2023-04-22T23:53:19.165Z,20.98
2023-04-22T23:58:20.860Z,16.60
